Time;durP1;ratioP1;P1;durP2;ratioP2;P2;SDS_P1;SDS_P2;PMS_P1;PMS_P2;Temp;Humidity;BMP_temperature;BMP_pressure;BME280_temperature;BME280_humidity;BME280_pressure;Samples;Min_cycle;Max_cycle;Signal;HPM_P1;HPM_P2
2021/03/30 00:02:12;;;;;;;8.23;5.68;;;12.30;99.90;;;;;;5021152;28;20048;-68
2021/03/30 00:05:16;;;;;;;8.30;5.38;;;12.20;99.90;;;;;;5031132;28;20056;-67
2021/03/30 00:08:21;;;;;;;10.93;5.78;;;12.20;99.90;;;;;;5030213;28;20052;-68
2021/03/30 00:11:25;;;;;;;8.38;5.05;;;12.10;99.90;;;;;;5031918;28;20048;-68
2021/03/30 00:14:29;;;;;;;10.40;5.10;;;12.10;99.90;;;;;;5030301;28;20483;-67
2021/03/30 00:17:34;;;;;;;13.75;5.70;;;12.10;99.90;;;;;;5030891;28;20070;-67
2021/03/30 00:20:39;;;;;;;9.15;6.25;;;12.00;99.90;;;;;;5031025;28;20049;-68
2021/03/30 00:23:43;;;;;;;11.98;6.13;;;12.00;99.90;;;;;;5031279;28;20040;-68
2021/03/30 00:26:47;;;;;;;11.65;6.25;;;11.80;99.90;;;;;;5030373;28;20045;-68
2021/03/30 00:29:52;;;;;;;9.23;6.35;;;11.70;99.90;;;;;;5031227;28;20044;-67
2021/03/30 00:32:57;;;;;;;16.88;7.13;;;11.70;99.90;;;;;;5030169;28;20052;-68
2021/03/30 00:36:02;;;;;;;15.68;7.25;;;11.60;99.90;;;;;;5030740;28;20048;-68
2021/03/30 00:39:06;;;;;;;13.70;7.75;;;11.50;99.90;;;;;;5031502;28;20049;-68
2021/03/30 00:42:10;;;;;;;14.73;7.20;;;11.50;99.90;;;;;;5030871;28;20048;-68
2021/03/30 00:45:15;;;;;;;15.05;7.32;;;11.40;99.90;;;;;;5030900;28;20049;-68
2021/03/30 00:48:27;;;;;;;10.40;6.70;;;11.30;99.90;;;;;;5030498;28;20068;-68
2021/03/30 00:51:34;;;;;;;10.68;5.47;;;11.30;99.90;;;;;;5029005;28;20092;-68
2021/03/30 00:54:59;;;;;;;10.40;5.90;;;11.20;99.90;;;;;;5020093;28;20056;-68
2021/03/30 00:58:03;;;;;;;15.50;6.57;;;11.30;99.90;;;;;;5029863;28;20052;-68
2021/03/30 01:01:07;;;;;;;9.07;5.57;;;11.30;99.90;;;;;;5030539;28;20048;-68
2021/03/30 01:04:13;;;;;;;11.88;5.72;;;11.40;99.90;;;;;;5029528;28;20052;-68
2021/03/30 01:07:17;;;;;;;8.98;5.13;;;11.40;99.90;;;;;;5027131;28;20045;-69
2021/03/30 01:10:48;;;;;;;12.00;6.10;;;11.50;99.90;;;;;;5028282;28;20487;-68
2021/03/30 01:14:14;;;;;;;7.70;5.13;;;11.60;99.90;;;;;;5030355;28;20060;-68
2021/03/30 01:17:46;;;;;;;12.98;6.07;;;11.60;99.90;;;;;;5021223;28;20048;-68
2021/03/30 01:21:24;;;;;;;13.23;8.50;;;11.50;99.90;;;;;;5027743;28;20427;-68
2021/03/30 01:24:43;;;;;;;15.95;7.82;;;11.40;99.90;;;;;;5025196;28;20476;-68
2021/03/30 01:27:50;;;;;;;14.68;7.47;;;11.40;99.90;;;;;;5030426;28;20388;-68
2021/03/30 01:30:57;;;;;;;14.18;9.98;;;11.30;99.90;;;;;;5031076;28;20068;-68
2021/03/30 01:34:03;;;;;;;18.00;9.50;;;11.30;99.90;;;;;;5019899;28;20049;-68
2021/03/30 01:37:09;;;;;;;17.20;9.52;;;11.20;99.90;;;;;;5029150;28;20040;-68
2021/03/30 01:40:19;;;;;;;19.58;10.15;;;11.20;99.90;;;;;;5030500;28;20040;-68
2021/03/30 01:43:26;;;;;;;22.30;10.00;;;11.20;99.90;;;;;;5030659;28;20044;-68
2021/03/30 01:46:32;;;;;;;19.45;10.10;;;11.10;99.90;;;;;;5029505;28;20380;-68
2021/03/30 01:49:39;;;;;;;14.60;10.15;;;11.10;99.90;;;;;;5030181;28;20060;-68
2021/03/30 01:52:44;;;;;;;17.92;10.27;;;11.00;99.90;;;;;;5017584;28;20496;-68
2021/03/30 01:55:53;;;;;;;14.77;9.77;;;11.00;99.90;;;;;;5029694;28;20120;-68
2021/03/30 01:59:00;;;;;;;15.57;9.60;;;10.80;99.90;;;;;;5029529;28;20052;-68
2021/03/30 02:02:05;;;;;;;16.23;9.38;;;10.70;99.90;;;;;;5029732;28;20535;-68
2021/03/30 02:05:11;;;;;;;18.88;9.35;;;10.60;99.90;;;;;;5029962;28;20041;-68
2021/03/30 02:08:17;;;;;;;10.48;7.63;;;10.60;99.90;;;;;;5028607;28;20048;-68
2021/03/30 02:11:56;;;;;;;15.85;7.70;;;10.60;99.90;;;;;;5033799;28;20048;-68
2021/03/30 02:14:52;;;;;;;15.57;8.57;;;10.60;99.90;;;;;;5034054;28;20068;-68
2021/03/30 02:18:09;;;;;;;14.88;8.73;;;10.70;99.90;;;;;;5033278;28;20479;-68
2021/03/30 02:21:23;;;;;;;17.52;8.88;;;10.70;99.90;;;;;;5032252;28;20032;-67
2021/03/30 02:24:30;;;;;;;13.10;8.43;;;10.70;99.90;;;;;;5033036;28;20037;-68
2021/03/30 02:27:40;;;;;;;14.63;8.75;;;10.70;99.90;;;;;;5033168;28;20049;-68
2021/03/30 02:30:46;;;;;;;13.52;9.48;;;10.80;99.90;;;;;;5033697;28;20041;-67
2021/03/30 02:33:53;;;;;;;15.10;8.43;;;10.80;99.90;;;;;;5033527;28;20384;-68
2021/03/30 02:36:57;;;;;;;12.98;8.88;;;10.90;99.90;;;;;;5031627;28;20049;-68
2021/03/30 02:40:06;;;;;;;16.17;9.32;;;10.80;99.90;;;;;;5032997;28;20376;-68
2021/03/30 02:43:13;;;;;;;20.50;11.30;;;10.70;99.90;;;;;;5030175;28;20052;-68
2021/03/30 02:46:19;;;;;;;18.40;10.77;;;10.60;99.90;;;;;;5032350;28;20052;-68
2021/03/30 02:49:25;;;;;;;21.33;12.32;;;10.60;99.90;;;;;;5032747;28;20056;-69
2021/03/30 02:52:30;;;;;;;19.27;11.48;;;10.70;99.90;;;;;;5032527;28;20044;-68
2021/03/30 02:55:36;;;;;;;18.83;11.50;;;10.70;99.90;;;;;;5019707;28;20057;-68
2021/03/30 02:58:42;;;;;;;20.08;12.55;;;10.70;99.90;;;;;;5031892;28;20052;-68
2021/03/30 03:01:48;;;;;;;18.60;9.90;;;10.70;99.90;;;;;;5032652;28;20048;-68
2021/03/30 03:04:54;;;;;;;26.00;12.52;;;10.60;99.90;;;;;;5033277;28;20487;-67
2021/03/30 03:07:59;;;;;;;22.70;12.20;;;10.60;99.90;;;;;;5023199;28;20792;-68
2021/03/30 03:11:06;;;;;;;23.95;11.50;;;10.40;99.90;;;;;;5021482;28;20052;-68
2021/03/30 03:14:12;;;;;;;21.25;10.98;;;10.20;99.90;;;;;;5032948;28;20048;-68
2021/03/30 03:17:16;;;;;;;18.52;10.13;;;10.10;99.90;;;;;;5031914;28;20041;-67
2021/03/30 03:20:20;;;;;;;18.33;10.52;;;10.00;99.90;;;;;;5031897;28;20061;-67
2021/03/30 03:23:25;;;;;;;19.67;11.40;;;9.90;99.90;;;;;;5019911;28;20048;-68
2021/03/30 03:26:31;;;;;;;16.95;11.20;;;9.80;99.90;;;;;;5031901;28;20047;-68
2021/03/30 03:29:36;;;;;;;19.95;10.77;;;9.80;99.90;;;;;;5030804;28;20064;-67
2021/03/30 03:32:42;;;;;;;21.33;11.30;;;9.70;99.90;;;;;;5032152;28;20045;-68
2021/03/30 03:36:08;;;;;;;16.95;11.77;;;9.70;99.90;;;;;;5031617;28;20048;-68
2021/03/30 03:39:17;;;;;;;14.90;10.63;;;9.70;99.90;;;;;;5024557;28;20048;-68
2021/03/30 03:42:21;;;;;;;18.00;9.88;;;9.70;99.90;;;;;;5032644;28;20056;-68
2021/03/30 03:45:27;;;;;;;13.20;8.38;;;9.70;99.90;;;;;;5032067;28;20052;-67
2021/03/30 03:48:31;;;;;;;16.17;9.50;;;9.60;99.90;;;;;;5032290;28;20078;-68
2021/03/30 03:51:44;;;;;;;17.40;8.73;;;9.50;99.90;;;;;;5031046;28;20044;-68
2021/03/30 03:54:49;;;;;;;14.98;8.98;;;9.40;99.90;;;;;;5032003;28;20045;-67
2021/03/30 03:57:59;;;;;;;21.92;10.32;;;9.40;99.90;;;;;;5032045;28;20044;-68
2021/03/30 04:01:09;;;;;;;15.25;9.35;;;9.30;99.90;;;;;;5031443;28;20036;-67
2021/03/30 04:04:25;;;;;;;13.40;7.68;;;9.30;99.90;;;;;;5031818;28;20049;-67
2021/03/30 04:07:48;;;;;;;13.93;7.47;;;9.30;99.90;;;;;;5030277;28;20040;-68
2021/03/30 04:10:53;;;;;;;10.73;7.00;;;9.20;99.90;;;;;;5018190;28;20056;-68
2021/03/30 04:13:59;;;;;;;13.38;7.03;;;9.20;99.90;;;;;;5031499;28;20060;-67
2021/03/30 04:17:05;;;;;;;11.80;7.32;;;9.10;99.90;;;;;;5030657;28;20045;-67
2021/03/30 04:20:12;;;;;;;18.23;8.70;;;9.20;99.90;;;;;;5020482;28;20048;-68
2021/03/30 04:23:22;;;;;;;17.00;9.02;;;9.10;99.90;;;;;;5030457;28;20052;-68
2021/03/30 04:26:27;;;;;;;12.10;8.05;;;9.10;99.90;;;;;;5030308;28;20056;-67
2021/03/30 04:29:31;;;;;;;10.68;6.97;;;9.00;99.90;;;;;;5029785;28;20052;-67
2021/03/30 04:32:35;;;;;;;22.13;8.25;;;8.90;99.90;;;;;;5029896;28;20037;-68
2021/03/30 04:35:40;;;;;;;12.07;7.03;;;8.90;99.90;;;;;;5030666;28;20060;-68
2021/03/30 04:38:43;;;;;;;12.25;7.00;;;8.90;99.90;;;;;;5030877;28;20057;-67
2021/03/30 04:41:47;;;;;;;12.05;7.40;;;8.90;99.90;;;;;;5030896;28;20068;-67
2021/03/30 04:44:52;;;;;;;13.07;7.90;;;9.00;99.90;;;;;;5031096;28;20052;-68
2021/03/30 04:47:56;;;;;;;15.32;8.88;;;9.00;99.90;;;;;;5029760;28;20043;-68
2021/03/30 04:51:00;;;;;;;11.88;8.02;;;9.10;99.90;;;;;;5030747;28;20052;-68
2021/03/30 04:54:05;;;;;;;18.70;8.80;;;9.10;99.90;;;;;;5031287;28;20052;-67
2021/03/30 04:57:10;;;;;;;14.57;8.70;;;9.10;99.90;;;;;;5030265;28;20087;-68
2021/03/30 05:00:17;;;;;;;13.57;8.60;;;9.10;99.90;;;;;;5030509;28;20044;-68
2021/03/30 05:03:21;;;;;;;15.48;9.00;;;9.10;99.90;;;;;;5030492;28;20052;-68
2021/03/30 05:06:25;;;;;;;12.68;8.95;;;9.10;99.90;;;;;;5029308;28;20080;-68
2021/03/30 05:09:29;;;;;;;15.38;8.35;;;9.00;99.90;;;;;;5020327;28;20053;-67
2021/03/30 05:12:33;;;;;;;15.77;8.35;;;9.00;99.90;;;;;;5030694;28;20087;-67
2021/03/30 05:15:38;;;;;;;17.63;10.73;;;8.90;99.90;;;;;;5030066;28;20045;-67
2021/03/30 05:18:43;;;;;;;19.05;12.93;;;8.90;99.90;;;;;;5026528;28;20641;-67
2021/03/30 05:21:48;;;;;;;20.42;13.50;;;8.80;99.90;;;;;;5026040;28;20040;-67
2021/03/30 05:24:52;;;;;;;23.60;14.65;;;8.80;99.90;;;;;;5026932;28;20495;-67
2021/03/30 05:27:56;;;;;;;24.05;14.20;;;8.70;99.90;;;;;;5027113;28;20048;-67
2021/03/30 05:31:01;;;;;;;28.02;13.57;;;8.70;99.90;;;;;;5022438;28;20380;-67
2021/03/30 05:34:05;;;;;;;20.85;13.55;;;8.80;99.90;;;;;;5024222;28;20051;-67
2021/03/30 05:37:09;;;;;;;22.58;13.27;;;8.90;99.90;;;;;;5024341;28;20040;-68
2021/03/30 05:40:16;;;;;;;22.83;13.60;;;9.00;99.90;;;;;;5027192;28;20052;-67
2021/03/30 05:43:21;;;;;;;21.48;10.57;;;9.00;99.90;;;;;;5026037;28;20064;-67
2021/03/30 05:46:25;;;;;;;23.35;9.63;;;9.10;99.90;;;;;;5026448;28;20061;-68
2021/03/30 05:49:30;;;;;;;16.00;8.18;;;9.60;99.90;;;;;;5025914;28;20403;-68
2021/03/30 05:55:53;;;;;;;10.95;6.60;;;15.00;99.90;;;;;;5028953;28;20037;-68
2021/03/30 05:58:59;;;;;;;13.88;6.53;;;17.60;99.90;;;;;;5028104;28;20049;-68
2021/03/30 06:02:08;;;;;;;10.88;5.10;;;19.30;98.30;;;;;;5030438;28;20055;-68
2021/03/30 06:05:15;;;;;;;10.38;6.45;;;20.80;95.40;;;;;;5024312;28;20040;-68
2021/03/30 06:08:24;;;;;;;17.65;6.97;;;21.70;92.90;;;;;;5030520;28;20040;-68
2021/03/30 06:11:29;;;;;;;9.70;6.05;;;21.20;92.00;;;;;;5032877;28;20045;-68
2021/03/30 06:14:38;;;;;;;13.80;7.40;;;21.20;92.10;;;;;;5032386;28;20598;-68
2021/03/30 06:17:49;;;;;;;12.85;6.90;;;22.10;91.90;;;;;;5030254;28;20048;-68
2021/03/30 06:20:53;;;;;;;13.25;7.75;;;23.50;90.10;;;;;;5027504;28;20965;-68
2021/03/30 06:23:59;;;;;;;13.27;7.97;;;24.40;86.60;;;;;;5029678;28;20052;-68
2021/03/30 06:27:03;;;;;;;14.90;7.65;;;24.10;84.10;;;;;;5030471;28;20052;-68
2021/03/30 06:30:09;;;;;;;16.38;7.85;;;25.10;82.40;;;;;;5018306;28;20048;-68
2021/03/30 06:33:13;;;;;;;14.65;7.53;;;24.50;80.10;;;;;;5023931;28;20044;-68
2021/03/30 06:36:24;;;;;;;15.48;8.27;;;24.50;80.40;;;;;;5027012;28;20080;-68
2021/03/30 06:39:37;;;;;;;16.63;8.70;;;23.00;81.00;;;;;;5030481;28;20057;-68
2021/03/30 06:45:51;;;;;;;13.65;7.90;;;22.20;84.40;;;;;;5027924;28;20506;-68
2021/03/30 06:48:55;;;;;;;17.10;8.57;;;22.50;84.50;;;;;;5002846;28;20056;-68
2021/03/30 06:52:15;;;;;;;11.88;9.27;;;21.90;84.00;;;;;;5010038;28;20052;-68
2021/03/30 06:55:30;;;;;;;16.52;8.82;;;21.60;85.10;;;;;;5016049;28;20041;-68
2021/03/30 06:58:58;;;;;;;17.65;8.15;;;21.90;84.80;;;;;;5023837;28;20056;-68
2021/03/30 07:02:03;;;;;;;12.35;7.93;;;22.20;84.10;;;;;;5025372;28;20704;-68
2021/03/30 07:05:20;;;;;;;13.73;7.82;;;22.40;83.50;;;;;;5025522;28;20499;-68
2021/03/30 07:08:25;;;;;;;16.75;9.07;;;23.20;82.60;;;;;;5004389;28;20048;-68
2021/03/30 07:11:32;;;;;;;12.18;8.25;;;21.60;82.40;;;;;;5025890;28;21101;-68
2021/03/30 07:14:37;;;;;;;12.32;7.65;;;23.00;82.30;;;;;;5024587;28;20136;-68
2021/03/30 07:17:42;;;;;;;10.30;7.65;;;24.60;78.80;;;;;;5020648;28;20671;-68
2021/03/30 07:20:56;;;;;;;10.27;7.18;;;24.50;79.50;;;;;;5021954;28;20057;-68
2021/03/30 07:24:05;;;;;;;12.23;8.73;;;25.50;76.60;;;;;;5019888;28;20056;-68
2021/03/30 07:27:17;;;;;;;12.45;8.35;;;23.60;75.40;;;;;;5023474;28;20056;-68
2021/03/30 07:30:24;;;;;;;10.43;8.00;;;21.20;79.90;;;;;;5024934;28;20522;-68
2021/03/30 07:33:42;;;;;;;13.63;7.68;;;22.10;80.50;;;;;;5023287;28;20499;-68
2021/03/30 07:36:56;;;;;;;17.98;10.18;;;24.90;76.60;;;;;;5020619;28;20056;-68
2021/03/30 07:40:01;;;;;;;13.43;8.23;;;26.50;75.20;;;;;;5028900;28;20045;-67
2021/03/30 07:43:08;;;;;;;15.57;8.68;;;24.50;76.30;;;;;;5019632;28;20043;-67
2021/03/30 07:46:14;;;;;;;12.00;8.52;;;25.40;75.20;;;;;;5023593;28;20052;-68
2021/03/30 07:49:21;;;;;;;15.82;9.45;;;24.80;75.60;;;;;;5024561;28;20048;-68
2021/03/30 07:52:29;;;;;;;13.73;8.73;;;24.60;76.40;;;;;;5020846;28;20408;-68
2021/03/30 07:55:40;;;;;;;12.43;7.50;;;25.80;76.40;;;;;;5024932;28;20518;-68
2021/03/30 07:58:46;;;;;;;12.13;8.10;;;27.80;72.40;;;;;;5014824;28;20412;-68
2021/03/30 08:01:50;;;;;;;13.80;7.93;;;27.20;70.20;;;;;;5014280;28;20060;-68
2021/03/30 08:05:02;;;;;;;11.98;9.00;;;25.60;73.10;;;;;;5023147;28;20045;-68
2021/03/30 08:08:24;;;;;;;13.60;9.80;;;24.70;76.00;;;;;;5019743;28;20044;-66
2021/03/30 08:11:46;;;;;;;14.05;9.00;;;26.10;72.80;;;;;;5023877;28;20044;-67
2021/03/30 08:14:51;;;;;;;13.25;9.05;;;25.40;73.00;;;;;;5023189;28;20067;-66
2021/03/30 08:17:56;;;;;;;11.57;8.52;;;24.60;74.90;;;;;;5024167;28;20483;-67
2021/03/30 08:21:18;;;;;;;13.27;7.78;;;25.30;73.20;;;;;;5024114;28;20060;-67
2021/03/30 08:24:42;;;;;;;13.00;7.60;;;24.70;75.90;;;;;;5004256;28;20045;-67
2021/03/30 08:27:54;;;;;;;12.25;7.95;;;25.40;75.60;;;;;;5021509;28;20099;-67
2021/03/30 08:30:58;;;;;;;13.20;7.80;;;24.40;75.70;;;;;;5028183;28;20495;-67
2021/03/30 08:34:13;;;;;;;10.73;7.93;;;26.50;74.20;;;;;;5028883;28;20040;-67
2021/03/30 08:37:20;;;;;;;11.38;6.70;;;28.50;70.80;;;;;;5009088;28;20051;-67
2021/03/30 08:40:36;;;;;;;12.27;6.68;;;26.90;69.70;;;;;;5022734;28;20515;-68
2021/03/30 08:43:40;;;;;;;11.02;6.95;;;27.20;68.90;;;;;;5021143;28;20053;-68
2021/03/30 08:46:48;;;;;;;9.02;6.10;;;29.60;67.30;;;;;;5016044;28;20052;-68
2021/03/30 08:50:12;;;;;;;12.25;6.13;;;30.50;65.20;;;;;;5022490;28;20526;-68
2021/03/30 08:53:20;;;;;;;10.40;6.20;;;31.80;63.50;;;;;;5021446;28;20048;-68
2021/03/30 08:56:29;;;;;;;9.02;5.78;;;31.70;61.80;;;;;;5019784;28;20049;-68
2021/03/30 08:59:35;;;;;;;10.98;6.15;;;32.20;60.90;;;;;;5023175;28;20060;-68
2021/03/30 09:03:03;;;;;;;10.75;5.55;;;31.50;59.00;;;;;;5023420;28;20048;-68
2021/03/30 09:06:33;;;;;;;8.52;5.55;;;33.00;57.90;;;;;;5015223;28;20653;-68
2021/03/30 09:09:38;;;;;;;10.98;5.38;;;34.00;56.70;;;;;;5021563;28;20113;-65
2021/03/30 09:12:47;;;;;;;14.05;6.18;;;35.00;54.30;;;;;;5021829;28;20032;-66
2021/03/30 09:16:08;;;;;;;9.07;4.50;;;36.10;52.80;;;;;;5007575;28;20048;-68
2021/03/30 09:19:18;;;;;;;10.10;4.40;;;34.60;50.70;;;;;;5020453;28;20848;-66
2021/03/30 09:22:32;;;;;;;6.65;3.80;;;35.30;50.30;;;;;;5021041;28;21056;-66
2021/03/30 09:25:50;;;;;;;9.82;4.13;;;37.70;48.20;;;;;;5008217;28;20391;-67
2021/03/30 09:28:55;;;;;;;5.97;3.47;;;37.80;47.20;;;;;;5018494;28;20044;-66
2021/03/30 09:32:14;;;;;;;6.20;3.40;;;37.90;46.30;;;;;;5020738;28;20044;-66
2021/03/30 09:35:47;;;;;;;5.85;4.25;;;35.50;45.50;;;;;;5008583;28;20053;-66
2021/03/30 09:38:57;;;;;;;12.38;4.30;;;36.80;45.00;;;;;;5022761;28;20511;-66
2021/03/30 09:42:05;;;;;;;9.43;4.30;;;35.10;45.90;;;;;;5020046;28;20056;-68
2021/03/30 09:45:15;;;;;;;9.07;3.92;;;36.80;45.90;;;;;;5010470;28;20053;-68
2021/03/30 09:48:23;;;;;;;9.63;4.40;;;38.10;45.30;;;;;;5020963;28;20048;-69
2021/03/30 09:51:43;;;;;;;5.45;3.58;;;38.90;43.60;;;;;;5013186;28;20747;-68
2021/03/30 09:54:48;;;;;;;4.97;2.97;;;37.40;44.00;;;;;;5011750;28;20052;-68
2021/03/30 09:58:03;;;;;;;9.48;3.53;;;38.90;42.60;;;;;;5022551;28;20068;-68
2021/03/30 10:01:10;;;;;;;8.45;3.53;;;39.30;41.90;;;;;;5021504;28;20060;-68
2021/03/30 10:04:14;;;;;;;6.45;3.85;;;35.70;42.80;;;;;;5012232;28;20044;-67
2021/03/30 10:07:20;;;;;;;6.40;3.28;;;35.30;42.90;;;;;;5018921;28;20422;-69
2021/03/30 10:10:39;;;;;;;6.80;3.10;;;36.40;42.60;;;;;;5021571;28;20052;-68
2021/03/30 10:13:43;;;;;;;7.00;3.17;;;38.30;41.50;;;;;;5022063;28;20052;-68
2021/03/30 10:16:47;;;;;;;5.70;3.03;;;34.00;40.80;;;;;;5015777;28;20515;-68
2021/03/30 10:19:54;;;;;;;5.60;2.85;;;36.00;43.10;;;;;;5022198;28;20053;-69
2021/03/30 10:23:00;;;;;;;6.20;3.17;;;39.10;40.50;;;;;;5019544;28;20076;-66
2021/03/30 10:26:14;;;;;;;5.40;2.72;;;35.90;39.20;;;;;;5017692;28;20044;-68
2021/03/30 10:29:30;;;;;;;5.47;3.05;;;32.90;42.50;;;;;;5023602;28;20044;-67
2021/03/30 10:32:52;;;;;;;5.72;2.85;;;32.70;42.80;;;;;;5025824;28;20040;-68
2021/03/30 10:35:56;;;;;;;4.63;2.60;;;34.60;42.10;;;;;;5016010;28;20400;-68
2021/03/30 10:39:10;;;;;;;3.63;2.17;;;38.30;40.00;;;;;;5024837;28;20064;-68
2021/03/30 10:42:17;;;;;;;4.03;2.22;;;39.20;37.80;;;;;;5025844;28;20056;-66
2021/03/30 10:45:29;;;;;;;5.03;2.28;;;34.60;35.80;;;;;;5022506;28;20369;-66
2021/03/30 10:49:04;;;;;;;3.40;2.20;;;36.70;36.70;;;;;;5023947;28;20049;-69
2021/03/30 10:52:16;;;;;;;4.97;2.05;;;36.60;36.30;;;;;;5023249;28;20507;-67
2021/03/30 10:55:21;;;;;;;4.97;2.05;;;37.20;36.10;;;;;;5020189;28;20064;-66
2021/03/30 10:58:26;;;;;;;6.22;1.65;;;37.70;34.70;;;;;;5023203;28;20167;-67
2021/03/30 11:01:31;;;;;;;4.30;1.80;;;38.20;34.70;;;;;;5020551;28;20804;-66
2021/03/30 11:04:37;;;;;;;4.63;1.80;;;38.30;35.10;;;;;;5017173;28;20049;-65
2021/03/30 11:07:41;;;;;;;2.83;1.70;;;39.90;34.10;;;;;;5020811;28;20096;-66
2021/03/30 11:10:46;;;;;;;5.38;2.45;;;40.40;33.30;;;;;;5022464;28;20056;-66
2021/03/30 11:13:52;;;;;;;3.50;1.88;;;38.40;33.60;;;;;;5021422;28;20045;-66
2021/03/30 11:17:03;;;;;;;5.13;1.90;;;36.70;33.00;;;;;;5019678;28;20052;-67
2021/03/30 11:20:13;;;;;;;6.25;1.98;;;36.80;34.00;;;;;;5023019;28;20053;-66
2021/03/30 11:23:18;;;;;;;6.40;2.03;;;38.30;31.70;;;;;;5022033;28;20044;-66
2021/03/30 11:26:23;;;;;;;3.90;1.90;;;39.80;32.40;;;;;;5022711;28;20036;-66
2021/03/30 11:38:58;;;;;;;5.90;1.98;;;42.10;31.10;;;;;;5017602;28;20056;-66
2021/03/30 11:42:02;;;;;;;3.15;1.40;;;39.00;31.30;;;;;;5022120;28;20364;-66
2021/03/30 11:45:08;;;;;;;2.38;1.50;;;37.40;32.40;;;;;;5022844;28;20060;-68
2021/03/30 11:48:13;;;;;;;3.42;1.50;;;39.40;30.70;;;;;;5016097;28;20048;-66
2021/03/30 11:51:19;;;;;;;3.40;1.50;;;40.50;30.20;;;;;;5023720;28;20060;-66
2021/03/30 11:54:24;;;;;;;6.07;1.77;;;41.10;30.00;;;;;;5016260;28;20115;-67
2021/03/30 11:57:28;;;;;;;9.20;1.50;;;41.20;30.70;;;;;;5010742;28;20683;-66
2021/03/30 12:00:34;;;;;;;3.72;1.27;;;41.50;31.50;;;;;;5018308;28;20052;-66
2021/03/30 12:03:38;;;;;;;4.60;1.67;;;42.10;30.10;;;;;;5017055;28;20041;-66
2021/03/30 12:06:43;;;;;;;4.72;2.20;;;42.90;30.30;;;;;;5015777;28;20052;-66
2021/03/30 12:09:48;;;;;;;5.32;1.60;;;42.80;30.30;;;;;;5020338;28;20044;-66
2021/03/30 12:12:52;;;;;;;4.15;1.60;;;42.30;30.10;;;;;;5020030;28;20041;-66
2021/03/30 12:15:58;;;;;;;2.65;1.73;;;41.60;29.50;;;;;;5018239;28;20036;-66
2021/03/30 12:19:03;;;;;;;4.00;1.52;;;40.70;29.20;;;;;;5014949;28;20653;-67
2021/03/30 12:22:08;;;;;;;5.82;1.67;;;35.10;28.70;;;;;;5017389;28;20103;-66
2021/03/30 12:25:14;;;;;;;9.57;1.95;;;31.50;31.90;;;;;;5016547;28;20048;-66
2021/03/30 12:28:18;;;;;;;5.38;1.73;;;34.00;31.90;;;;;;5011149;28;20080;-66
2021/03/30 12:31:22;;;;;;;3.42;1.80;;;36.00;30.40;;;;;;5020576;28;20393;-66
2021/03/30 12:34:27;;;;;;;4.82;1.67;;;37.00;31.00;;;;;;5019612;28;20051;-65
2021/03/30 12:37:32;;;;;;;4.22;2.40;;;38.90;31.90;;;;;;5009516;28;20048;-66
2021/03/30 12:40:37;;;;;;;2.72;1.75;;;37.70;30.10;;;;;;5014687;28;20092;-66
2021/03/30 12:43:43;;;;;;;4.68;2.10;;;35.90;30.50;;;;;;5018177;28;20048;-66
2021/03/30 12:46:48;;;;;;;2.63;1.80;;;35.00;31.40;;;;;;5009544;28;20133;-66
2021/03/30 12:49:53;;;;;;;8.20;1.60;;;36.80;30.70;;;;;;5020522;28;20587;-66
2021/03/30 12:52:58;;;;;;;5.13;1.60;;;38.40;31.40;;;;;;4994319;28;20047;-67
2021/03/30 12:56:03;;;;;;;4.20;1.88;;;40.00;31.30;;;;;;5012064;28;20040;-67
2021/03/30 12:59:08;;;;;;;5.47;1.58;;;40.50;30.00;;;;;;5009454;28;20052;-66
2021/03/30 13:02:13;;;;;;;3.42;1.80;;;36.40;29.20;;;;;;5020569;28;20056;-66
2021/03/30 13:05:18;;;;;;;3.63;1.52;;;32.40;33.00;;;;;;5020781;28;20112;-66
2021/03/30 13:08:22;;;;;;;3.08;1.73;;;34.60;33.80;;;;;;5011602;28;20389;-66
2021/03/30 13:11:28;;;;;;;3.22;1.30;;;37.40;32.50;;;;;;5022222;28;20091;-66
2021/03/30 13:14:32;;;;;;;2.13;1.35;;;39.30;31.40;;;;;;5020616;28;20052;-67
2021/03/30 13:17:36;;;;;;;2.90;1.20;;;39.70;30.60;;;;;;5012373;28;21330;-66
2021/03/30 13:20:41;;;;;;;5.47;1.77;;;38.10;29.60;;;;;;5020992;28;20048;-68
2021/03/30 13:23:46;;;;;;;3.90;2.00;;;31.70;32.00;;;;;;5021953;28;20053;-68
2021/03/30 13:26:50;;;;;;;6.70;1.60;;;33.80;32.10;;;;;;5012304;28;20037;-67
2021/03/30 13:29:56;;;;;;;3.72;1.90;;;33.60;33.00;;;;;;5019770;28;20040;-67
2021/03/30 13:33:02;;;;;;;4.95;1.98;;;31.90;32.40;;;;;;5021071;28;20060;-67
2021/03/30 13:36:08;;;;;;;3.85;1.85;;;31.70;32.30;;;;;;5015257;28;20069;-66
2021/03/30 13:39:12;;;;;;;6.53;1.63;;;33.00;33.20;;;;;;5018829;28;20048;-67
2021/03/30 13:42:20;;;;;;;5.35;1.92;;;34.90;32.40;;;;;;5022081;28;20036;-67
2021/03/30 13:45:40;;;;;;;4.57;1.60;;;36.20;31.40;;;;;;5018806;28;20037;-67
2021/03/30 13:48:44;;;;;;;3.10;1.90;;;35.30;31.90;;;;;;5015087;28;20048;-67
2021/03/30 13:51:50;;;;;;;5.60;1.80;;;33.10;32.90;;;;;;5018506;28;20049;-67
2021/03/30 13:54:54;;;;;;;4.07;1.80;;;33.40;34.40;;;;;;5019726;28;20085;-68
2021/03/30 13:57:58;;;;;;;4.43;1.70;;;33.00;33.20;;;;;;5012671;28;20041;-67
2021/03/30 14:01:03;;;;;;;2.22;1.70;;;29.90;34.20;;;;;;5017176;28;20049;-67
2021/03/30 14:04:09;;;;;;;5.68;1.92;;;32.00;33.90;;;;;;5021485;28;20068;-66
2021/03/30 14:07:14;;;;;;;2.55;1.55;;;33.40;32.80;;;;;;5016885;28;20052;-67
2021/03/30 14:10:20;;;;;;;4.65;1.50;;;33.20;32.50;;;;;;5025999;28;20048;-67
2021/03/30 14:13:32;;;;;;;2.78;1.70;;;33.80;33.30;;;;;;5026068;28;20503;-67
2021/03/30 14:16:45;;;;;;;8.40;2.00;;;34.10;32.60;;;;;;5020668;28;20060;-67
2021/03/30 14:19:52;;;;;;;3.55;1.75;;;34.00;33.30;;;;;;5025035;28;20040;-67
2021/03/30 14:23:46;;;;;;;2.53;1.67;;;31.20;34.00;;;;;;5023402;28;20046;-67
2021/03/30 14:26:50;;;;;;;5.57;2.30;;;29.30;35.80;;;;;;5015367;28;20044;-67
2021/03/30 14:29:55;;;;;;;5.78;2.00;;;28.00;36.70;;;;;;5027092;28;20036;-67
2021/03/30 14:33:00;;;;;;;4.78;2.00;;;27.90;36.90;;;;;;5024943;28;20048;-68
2021/03/30 14:36:07;;;;;;;9.73;2.20;;;28.60;36.10;;;;;;5020681;28;20048;-68
2021/03/30 14:39:14;;;;;;;3.03;1.80;;;29.00;37.30;;;;;;5024277;28;20052;-68
2021/03/30 14:42:22;;;;;;;10.57;2.70;;;29.00;35.90;;;;;;5020020;28;20040;-68
2021/03/30 14:52:02;;;;;;;5.13;1.92;;;27.60;37.50;;;;;;5022710;28;20048;-68
2021/03/30 14:55:17;;;;;;;5.82;2.00;;;27.50;38.80;;;;;;5029709;28;20056;-69
2021/03/30 14:58:36;;;;;;;2.47;1.60;;;27.70;37.60;;;;;;5015803;28;20056;-67
2021/03/30 15:04:50;;;;;;;8.95;2.60;;;26.50;37.90;;;;;;5019583;28;20049;-68
2021/03/30 15:07:54;;;;;;;6.47;2.03;;;26.30;38.80;;;;;;5009088;28;20044;-67
2021/03/30 15:10:59;;;;;;;3.70;2.08;;;26.60;37.50;;;;;;5024252;28;20052;-67
2021/03/30 15:14:04;;;;;;;6.93;2.20;;;26.90;39.00;;;;;;5022130;28;20041;-69
2021/03/30 15:17:09;;;;;;;6.88;2.30;;;26.40;37.90;;;;;;5014571;28;21410;-66
2021/03/30 15:20:13;;;;;;;9.25;2.20;;;26.30;39.30;;;;;;5023112;28;20495;-68
2021/03/30 15:23:18;;;;;;;2.85;2.10;;;26.10;38.60;;;;;;5020552;28;20064;-68
2021/03/30 15:26:23;;;;;;;3.78;2.28;;;25.60;39.30;;;;;;5011780;28;20044;-66
2021/03/30 15:29:28;;;;;;;4.57;2.22;;;25.80;38.00;;;;;;5018755;28;20074;-66
2021/03/30 15:32:33;;;;;;;5.38;2.33;;;25.60;39.00;;;;;;5020708;28;20121;-66
2021/03/30 15:35:37;;;;;;;7.68;2.05;;;25.40;39.60;;;;;;5016995;28;20839;-69
2021/03/30 15:38:41;;;;;;;5.72;2.03;;;25.90;39.70;;;;;;5014172;28;20780;-69
2021/03/30 15:41:47;;;;;;;5.70;2.50;;;26.00;39.70;;;;;;5019238;28;20045;-68
2021/03/30 15:47:58;;;;;;;4.78;2.25;;;25.60;38.60;;;;;;5007254;28;20055;-69
2021/03/30 15:51:04;;;;;;;4.82;2.42;;;25.80;39.60;;;;;;5020980;28;20503;-68
2021/03/30 15:54:08;;;;;;;4.72;2.75;;;25.30;39.90;;;;;;5022204;28;20052;-68
2021/03/30 15:57:13;;;;;;;5.50;2.60;;;25.50;39.40;;;;;;5014632;28;20051;-68
2021/03/30 16:00:23;;;;;;;5.50;2.20;;;25.10;38.70;;;;;;5024978;28;20082;-68
2021/03/30 16:03:27;;;;;;;3.75;2.20;;;25.30;38.90;;;;;;5024437;28;20056;-69
2021/03/30 16:06:32;;;;;;;5.03;2.10;;;25.50;39.10;;;;;;5014027;28;20129;-68
2021/03/30 16:09:38;;;;;;;5.28;2.03;;;25.60;39.60;;;;;;5016972;28;20036;-69
2021/03/30 16:12:42;;;;;;;6.97;2.30;;;25.60;39.30;;;;;;5022606;28;20052;-68
2021/03/30 16:15:46;;;;;;;4.20;2.00;;;25.60;40.20;;;;;;5018793;28;21281;-68
2021/03/30 16:18:50;;;;;;;6.05;1.92;;;25.40;39.30;;;;;;5017198;28;20052;-68
2021/03/30 16:21:55;;;;;;;5.63;1.92;;;25.40;41.10;;;;;;5021992;28;20048;-68
2021/03/30 16:24:59;;;;;;;5.03;2.42;;;25.30;40.10;;;;;;5018426;28;20124;-68
2021/03/30 16:28:04;;;;;;;3.15;2.10;;;25.20;41.50;;;;;;5010323;28;20448;-68
2021/03/30 16:31:08;;;;;;;5.70;2.28;;;25.10;39.40;;;;;;5019300;28;20067;-68
2021/03/30 16:34:13;;;;;;;4.35;2.33;;;25.00;42.00;;;;;;5020320;28;20052;-69
2021/03/30 16:37:18;;;;;;;5.95;1.90;;;24.70;42.40;;;;;;5011656;28;20036;-68
2021/03/30 16:40:22;;;;;;;8.02;1.83;;;24.60;45.60;;;;;;5023964;28;20052;-68
2021/03/30 16:43:26;;;;;;;13.07;9.80;;;24.40;45.00;;;;;;5023618;28;20436;-68